Time;durP1;ratioP1;P1;durP2;ratioP2;P2;SDS_P1;SDS_P2;PMS_P1;PMS_P2;Temp;Humidity;BMP_temperature;BMP_pressure;BME280_temperature;BME280_humidity;BME280_pressure;Samples;Min_cycle;Max_cycle;Signal;HPM_P1;HPM_P2
2023/12/24 00:01:33;;;;;;;;;;;;;;;;;;5065258;28;43337;-87
2023/12/24 00:03:59;;;;;;;;;;;;;;;;;;5065429;28;42928;-87
2023/12/24 00:06:28;;;;;;;;;;;;;;;;;;5064762;28;44048;-86
2023/12/24 00:08:53;;;;;;;;;;;;;;;;;;5063495;28;43064;-84
2023/12/24 00:11:19;;;;;;;;;;;17.30;68.60;;;;;;5064356;28;43726;-91
2023/12/24 00:13:45;;;;;;;;;;;;;;;;;;5065033;28;42917;-82
2023/12/24 00:16:11;;;;;;;;;;;;;;;;;;5064842;28;42825;-81
2023/12/24 00:18:37;;;;;;;;;;;;;;;;;;5064989;28;42833;-87
2023/12/24 00:21:02;;;;;;;;;;;;;;;;;;5064367;28;42905;-81
2023/12/24 00:23:28;;;;;;;;;;;17.20;65.90;;;;;;5064622;28;43206;-88
2023/12/24 00:25:54;;;;;;;;;;;;;;;;;;5064806;28;42874;-92
2023/12/24 00:28:19;;;;;;;;;;;17.30;68.30;;;;;;5064954;28;42902;-81
2023/12/24 00:30:46;;;;;;;;;;;;;;;;;;5064555;28;42767;-82
2023/12/24 00:33:12;;;;;;;;;;;;;;;;;;5065001;28;42886;-83
2023/12/24 00:35:37;;;;;;;;;;;17.30;66.70;;;;;;5063861;28;42941;-81
2023/12/24 00:38:03;;;;;;;;;;;;;;;;;;5064942;28;42979;-86
2023/12/24 00:40:29;;;;;;;;;;;;;;;;;;5067908;28;43598;-82
2023/12/24 00:42:54;;;;;;;;;;;17.20;69.30;;;;;;5066628;28;43028;-82
2023/12/24 00:45:20;;;;;;;;;;;17.40;69.30;;;;;;5066220;28;43785;-91
2023/12/24 00:47:45;;;;;;;;;;;17.10;69.40;;;;;;5067800;28;42928;-85
2023/12/24 00:50:11;;;;;;;;;;;;;;;;;;5067539;28;42831;-81
2023/12/24 00:52:37;;;;;;;;;;;;;;;;;;5067922;28;43093;-82
2023/12/24 00:55:03;;;;;;;;;;;;;;;;;;5067439;28;42944;-82
2023/12/24 00:57:29;;;;;;;;;;;;;;;;;;5067639;28;42777;-83
2023/12/24 00:59:55;;;;;;;;;;;;;;;;;;5067554;28;42900;-88
2023/12/24 01:02:21;;;;;;;;;;;;;;;;;;5068080;28;42810;-82
2023/12/24 01:04:47;;;;;;;;;;;;;;;;;;5067269;28;43468;-81
2023/12/24 01:07:13;;;;;;;;;;;;;;;;;;5065729;28;43080;-82
2023/12/24 01:09:38;;;;;;;;;;;;;;;;;;5067560;28;43954;-82
2023/12/24 01:12:04;;;;;;;;;;;17.20;70.60;;;;;;5067542;28;42927;-83
2023/12/24 01:14:30;;;;;;;;;;;17.30;70.10;;;;;;5043749;28;43684;-82
2023/12/24 01:16:55;;;;;;;;;;;17.10;69.50;;;;;;5045205;28;42868;-82
2023/12/24 01:19:22;;;;;;;;;;;17.20;66.90;;;;;;5046264;28;43472;-82
2023/12/24 01:21:48;;;;;;;;;;;17.20;68.70;;;;;;5046885;28;42986;-82
2023/12/24 01:24:14;;;;;;;;;;;;;;;;;;5051738;28;42846;-88
2023/12/24 01:26:40;;;;;;;;;;;17.20;68.30;;;;;;5047525;28;42870;-90
2023/12/24 01:29:05;;;;;;;;;;;17.20;67.20;;;;;;5046579;28;43017;-82
2023/12/24 01:31:31;;;;;;;;;;;;;;;;;;5046341;28;42788;-82
2023/12/24 01:33:57;;;;;;;;;;;;;;;;;;5046425;28;43014;-89
2023/12/24 01:36:23;;;;;;;;;;;;;;;;;;5045952;28;42969;-81
2023/12/24 01:38:49;;;;;;;;;;;;;;;;;;5046398;28;43062;-82
2023/12/24 01:41:14;;;;;;;;;;;17.30;68.90;;;;;;5045763;28;42794;-83
2023/12/24 01:43:40;;;;;;;;;;;17.30;69.20;;;;;;5046300;28;42954;-85
2023/12/24 01:46:06;;;;;;;;;;;17.10;69.20;;;;;;5046738;28;42839;-85
2023/12/24 01:48:31;;;;;;;;;;;;;;;;;;5046299;28;43030;-82
2023/12/24 01:51:00;;;;;;;;;;;17.20;66.60;;;;;;5045055;28;43218;-81
2023/12/24 01:53:26;;;;;;;;;;;17.30;68.70;;;;;;5046268;28;42886;-91
2023/12/24 01:55:52;;;;;;;;;;;;;;;;;;5045548;28;43072;-92
2023/12/24 01:58:17;;;;;;;;;;;17.20;67.80;;;;;;5043622;28;43641;-92
2023/12/24 02:00:43;;;;;;;;;;;;;;;;;;5045141;28;42702;-82
2023/12/24 02:03:09;;;;;;;;;;;;;;;;;;5046037;28;42918;-82
2023/12/24 02:05:35;;;;;;;;;;;;;;;;;;5045638;28;42912;-82
2023/12/24 02:08:01;;;;;;;;;;;;;;;;;;5045016;28;43070;-89
2023/12/24 02:10:27;;;;;;;;;;;;;;;;;;5045611;28;43012;-91
2023/12/24 02:12:53;;;;;;;;;;;;;;;;;;5045727;28;42930;-91
2023/12/24 02:15:19;;;;;;;;;;;;;;;;;;5046054;28;43019;-81
2023/12/24 02:17:45;;;;;;;;;;;;;;;;;;5046234;28;42977;-83
2023/12/24 02:20:11;;;;;;;;;;;;;;;;;;5045913;28;42911;-81
2023/12/24 02:22:36;;;;;;;;;;;;;;;;;;5043626;28;44428;-84
2023/12/24 02:25:03;;;;;;;;;;;;;;;;;;5045464;28;42904;-82
2023/12/24 02:27:34;;;;;;;;;;;17.10;67.00;;;;;;5045293;28;43434;-87
2023/12/24 02:30:05;;;;;;;;;;;17.20;66.70;;;;;;5045379;28;42974;-91
2023/12/24 02:32:31;;;;;;;;;;;;;;;;;;5044263;28;42997;-81
2023/12/24 02:34:59;;;;;;;;;;;;;;;;;;5044449;28;43015;-81
2023/12/24 02:37:25;;;;;;;;;;;;;;;;;;5045964;28;43531;-82
2023/12/24 02:39:51;;;;;;;;;;;;;;;;;;5045244;28;43124;-82
2023/12/24 02:42:17;;;;;;;;;;;;;;;;;;5044681;28;43454;-82
2023/12/24 02:44:43;;;;;;;;;;;;;;;;;;5045573;28;43070;-81
2023/12/24 02:47:08;;;;;;;;;;;17.20;66.70;;;;;;5044820;28;43538;-90
2023/12/24 02:49:34;;;;;;;;;;;17.30;66.80;;;;;;5044579;28;43000;-81
2023/12/24 02:52:00;;;;;;;;;;;;;;;;;;5044730;28;42934;-81
2023/12/24 02:54:25;;;;;;;;;;;17.30;65.90;;;;;;5045228;28;42954;-91
2023/12/24 02:56:51;;;;;;;;;;;;;;;;;;5044528;28;43420;-92
2023/12/24 02:59:17;;;;;;;;;;;;;;;;;;5045520;28;42976;-81
2023/12/24 03:01:43;;;;;;;;;;;;;;;;;;5043830;28;42990;-83
2023/12/24 03:04:09;;;;;;;;;;;;;;;;;;5045705;28;42895;-81
2023/12/24 03:06:35;;;;;;;;;;;;;;;;;;5044853;28;43420;-81
2023/12/24 03:09:00;;;;;;;;;;;17.20;65.60;;;;;;5044347;28;42954;-90
2023/12/24 03:11:27;;;;;;;;;;;17.20;67.00;;;;;;5044559;28;42761;-91
2023/12/24 03:13:52;;;;;;;;;;;;;;;;;;5044967;28;42938;-91
2023/12/24 03:16:18;;;;;;;;;;;17.20;66.50;;;;;;5044251;28;42851;-82
2023/12/24 03:18:44;;;;;;;;;;;17.30;66.60;;;;;;5044833;28;43114;-81
2023/12/24 03:21:09;;;;;;;;;;;17.20;65.40;;;;;;5044059;28;43369;-91
2023/12/24 03:23:35;;;;;;;;;;;;;;;;;;5043492;28;43608;-82
2023/12/24 03:26:01;;;;;;;;;;;;;;;;;;5038180;28;43774;-90
2023/12/24 03:28:27;;;;;;;;;;;;;;;;;;5044031;28;43011;-86
2023/12/24 03:30:53;;;;;;;;;;;;;;;;;;5041501;28;45514;-84
2023/12/24 03:33:19;;;;;;;;;;;;;;;;;;5043676;28;42877;-82
2023/12/24 03:35:44;;;;;;;;;;;;;;;;;;5042907;28;42785;-83
2023/12/24 03:38:10;;;;;;;;;;;;;;;;;;5043530;28;42980;-82
2023/12/24 03:40:36;;;;;;;;;;;;;;;;;;5048663;28;43608;-83
2023/12/24 03:43:02;;;;;;;;;;;;;;;;;;5048394;28;42844;-84
2023/12/24 03:45:28;;;;;;;;;;;17.20;66.20;;;;;;5045100;28;43469;-82
2023/12/24 03:47:53;;;;;;;;;;;17.20;66.30;;;;;;5044859;28;42911;-82
2023/12/24 03:50:19;;;;;;;;;;;;;;;;;;5044662;28;42931;-89
2023/12/24 03:52:45;;;;;;;;;;;;;;;;;;5045146;28;43043;-87
2023/12/24 03:55:11;;;;;;;;;;;;;;;;;;5045298;28;42818;-81
2023/12/24 03:57:37;;;;;;;;;;;;;;;;;;5045475;28;43194;-82
2023/12/24 04:00:03;;;;;;;;;;;;;;;;;;5044831;28;42950;-83
2023/12/24 04:02:29;;;;;;;;;;;17.10;64.80;;;;;;5044773;28;42982;-81
2023/12/24 04:04:55;;;;;;;;;;;;;;;;;;5044549;28;43340;-83
2023/12/24 04:07:21;;;;;;;;;;;;;;;;;;5044357;28;42883;-82
2023/12/24 04:09:46;;;;;;;;;;;;;;;;;;5044209;28;43428;-89
2023/12/24 04:12:12;;;;;;;;;;;;;;;;;;5044860;28;42982;-82
2023/12/24 04:14:38;;;;;;;;;;;17.30;66.70;;;;;;5048420;28;43421;-84
2023/12/24 04:17:04;;;;;;;;;;;17.30;66.70;;;;;;5047676;28;42952;-81
2023/12/24 04:19:30;;;;;;;;;;;17.10;66.50;;;;;;5046166;28;43985;-80
2023/12/24 04:21:55;;;;;;;;;;;17.20;66.20;;;;;;5029863;28;42994;-82
2023/12/24 04:24:21;;;;;;;;;;;;;;;;;;5047667;28;42933;-81
2023/12/24 04:26:47;;;;;;;;;;;;;;;;;;5047978;28;42865;-81
2023/12/24 04:29:13;;;;;;;;;;;;;;;;;;5048106;28;42839;-81
2023/12/24 04:31:39;;;;;;;;;;;;;;;;;;5048098;28;43093;-80
2023/12/24 04:34:06;;;;;;;;;;;;;;;;;;5047312;28;42981;-83
2023/12/24 04:36:32;;;;;;;;;;;;;;;;;;5048292;28;42967;-82
2023/12/24 04:38:58;;;;;;;;;;;17.10;66.60;;;;;;5047991;28;42990;-80
2023/12/24 04:41:23;;;;;;;;;;;17.00;66.60;;;;;;5047828;28;42933;-81
2023/12/24 04:43:49;;;;;;;;;;;17.10;65.60;;;;;;5047858;28;43039;-80
2023/12/24 04:46:15;;;;;;;;;;;;;;;;;;5047869;28;42985;-83
2023/12/24 04:48:41;;;;;;;;;;;;;;;;;;5048135;28;43747;-81
2023/12/24 04:51:07;;;;;;;;;;;;;;;;;;5047448;28;42946;-81
2023/12/24 04:53:33;;;;;;;;;;;;;;;;;;5047234;28;43527;-84
2023/12/24 04:55:58;;;;;;;;;;;17.20;66.80;;;;;;5047682;28;42926;-80
2023/12/24 04:58:23;;;;;;;;;;;17.20;66.80;;;;;;5045600;28;45189;-82
2023/12/24 05:00:49;;;;;;;;;;;17.10;65.70;;;;;;5047523;28;43063;-81
2023/12/24 05:03:15;;;;;;;;;;;;;;;;;;5047551;28;43373;-82
2023/12/24 05:05:41;;;;;;;;;;;;;;;;;;5047603;28;42749;-80
2023/12/24 05:08:07;;;;;;;;;;;;;;;;;;5047678;28;43492;-81
2023/12/24 05:10:33;;;;;;;;;;;;;;;;;;5047997;28;42885;-81
2023/12/24 05:12:58;;;;;;;;;;;;;;;;;;5047299;28;44213;-80
2023/12/24 05:15:24;;;;;;;;;;;17.00;66.90;;;;;;5047861;28;43066;-82
2023/12/24 05:17:49;;;;;;;;;;;17.10;66.90;;;;;;5047176;28;42911;-81
2023/12/24 05:20:15;;;;;;;;;;;;;;;;;;5047483;28;43018;-83
2023/12/24 05:22:41;;;;;;;;;;;17.10;65.10;;;;;;5046415;28;43469;-81
2023/12/24 05:25:07;;;;;;;;;;;;;;;;;;5046151;28;43148;-81
2023/12/24 05:27:33;;;;;;;;;;;;;;;;;;5047177;28;43726;-80
2023/12/24 05:29:58;;;;;;;;;;;;;;;;;;5047663;28;42974;-80
2023/12/24 05:32:24;;;;;;;;;;;;;;;;;;5046707;28;43003;-81
2023/12/24 05:34:50;;;;;;;;;;;17.10;66.70;;;;;;5046427;28;42909;-80
2023/12/24 05:37:15;;;;;;;;;;;17.10;66.70;;;;;;5047130;28;42954;-80
2023/12/24 05:39:42;;;;;;;;;;;17.10;65.30;;;;;;5047035;28;42884;-80
2023/12/24 05:42:08;;;;;;;;;;;17.30;66.70;;;;;;5046945;28;43446;-80
2023/12/24 05:44:33;;;;;;;;;;;17.20;66.70;;;;;;5046596;28;42783;-81
2023/12/24 05:46:59;;;;;;;;;;;17.10;65.90;;;;;;5046454;28;42931;-81
2023/12/24 05:49:25;;;;;;;;;;;;;;;;;;5046501;28;43116;-81
2023/12/24 05:51:51;;;;;;;;;;;;;;;;;;5046366;28;42950;-80
2023/12/24 05:54:17;;;;;;;;;;;;;;;;;;5047219;28;43133;-81
2023/12/24 05:56:43;;;;;;;;;;;;;;;;;;5051102;28;42814;-82
2023/12/24 05:59:09;;;;;;;;;;;;;;;;;;5052357;28;42950;-80
2023/12/24 06:01:34;;;;;;;;;;;17.10;66.90;;;;;;5045142;28;44468;-83
2023/12/24 06:04:00;;;;;;;;;;;16.80;66.70;;;;;;5046671;28;42926;-81
2023/12/24 06:06:26;;;;;;;;;;;17.20;67.00;;;;;;5046922;28;43651;-81
2023/12/24 06:08:51;;;;;;;;;;;17.10;67.10;;;;;;5046583;28;42863;-80
2023/12/24 06:11:17;;;;;;;;;;;;;;;;;;5028126;28;44472;-81
2023/12/24 06:13:43;;;;;;;;;;;;;;;;;;5046563;28;42733;-82
2023/12/24 06:16:11;;;;;;;;;;;;;;;;;;5045683;28;43054;-82
2023/12/24 06:18:37;;;;;;;;;;;17.10;66.00;;;;;;5045975;28;43235;-81
2023/12/24 06:21:03;;;;;;;;;;;;;;;;;;5046257;28;43564;-83
2023/12/24 06:23:29;;;;;;;;;;;;;;;;;;5045979;28;42916;-81
2023/12/24 06:25:55;;;;;;;;;;;;;;;;;;5046170;28;43008;-83
2023/12/24 06:28:21;;;;;;;;;;;;;;;;;;5046138;28;42971;-80
2023/12/24 06:30:47;;;;;;;;;;;;;;;;;;5046218;28;43636;-81
2023/12/24 06:33:13;;;;;;;;;;;;;;;;;;5046100;28;43007;-82
2023/12/24 06:35:39;;;;;;;;;;;;;;;;;;5045552;28;42686;-81
2023/12/24 06:38:04;;;;;;;;;;;17.00;67.30;;;;;;5044637;28;43081;-82
2023/12/24 06:40:30;;;;;;;;;;;17.00;67.10;;;;;;5045863;28;42872;-81
2023/12/24 06:42:55;;;;;;;;;;;17.00;66.80;;;;;;5046257;28;42938;-81
2023/12/24 06:45:21;;;;;;;;;;;;;;;;;;5045897;28;43357;-81
2023/12/24 06:47:47;;;;;;;;;;;;;;;;;;5046404;28;42792;-81
2023/12/24 06:50:13;;;;;;;;;;;;;;;;;;5046030;28;43639;-83
2023/12/24 06:52:39;;;;;;;;;;;;;;;;;;5046050;28;42941;-80
2023/12/24 06:55:04;;;;;;;;;;;;;;;;;;5045640;28;42883;-80
2023/12/24 06:57:30;;;;;;;;;;;17.00;66.90;;;;;;5045636;28;43138;-81
2023/12/24 06:59:55;;;;;;;;;;;17.00;67.00;;;;;;5045203;28;43575;-81
2023/12/24 07:02:21;;;;;;;;;;;;;;;;;;5046114;28;42892;-81
2023/12/24 07:04:47;;;;;;;;;;;17.00;65.40;;;;;;5045674;28;43406;-81
2023/12/24 07:07:13;;;;;;;;;;;;;;;;;;5045119;28;43010;-83
2023/12/24 07:09:39;;;;;;;;;;;;;;;;;;5045200;28;44704;-80
2023/12/24 07:12:05;;;;;;;;;;;;;;;;;;5045653;28;42992;-88
2023/12/24 07:14:31;;;;;;;;;;;;;;;;;;5043798;28;45062;-81
2023/12/24 07:16:56;;;;;;;;;;;;;;;;;;5043807;28;43096;-81
2023/12/24 07:19:22;;;;;;;;;;;;;;;;;;5045517;28;43110;-81
2023/12/24 07:21:48;;;;;;;;;;;17.20;66.30;;;;;;5045179;28;42955;-81
2023/12/24 07:24:14;;;;;;;;;;;;;;;;;;5045454;28;43784;-82
2023/12/24 07:26:39;;;;;;;;;;;17.00;66.10;;;;;;5045023;28;42770;-80
2023/12/24 07:29:05;;;;;;;;;;;;;;;;;;5043814;28;44727;-81
2023/12/24 07:31:31;;;;;;;;;;;;;;;;;;5045214;28;42950;-80
2023/12/24 07:33:57;;;;;;;;;;;;;;;;;;5044730;28;43064;-81
2023/12/24 07:36:23;;;;;;;;;;;;;;;;;;5044852;28;42713;-82
2023/12/24 07:38:49;;;;;;;;;;;;;;;;;;5044113;28;43859;-80
2023/12/24 07:41:15;;;;;;;;;;;;;;;;;;5044872;28;42944;-82
2023/12/24 07:43:41;;;;;;;;;;;;;;;;;;5043360;28;44565;-80
2023/12/24 07:46:07;;;;;;;;;;;;;;;;;;5044788;28;43037;-81
2023/12/24 07:48:33;;;;;;;;;;;;;;;;;;5047014;28;44038;-82
2023/12/24 07:50:59;;;;;;;;;;;;;;;;;;5048449;28;42907;-85
2023/12/24 07:53:24;;;;;;;;;;;17.10;63.80;;;;;;5050372;28;42948;-87
2023/12/24 07:55:50;;;;;;;;;;;16.90;65.90;;;;;;5046770;28;42987;-82
2023/12/24 07:58:15;;;;;;;;;;;17.00;64.80;;;;;;5047185;28;43107;-83
2023/12/24 08:00:41;;;;;;;;;;;;;;;;;;5064785;28;42892;-81
2023/12/24 08:03:07;;;;;;;;;;;;;;;;;;5070905;28;43665;-86
2023/12/24 08:05:33;;;;;;;;;;;;;;;;;;5048536;28;42974;-80
2023/12/24 08:07:59;;;;;;;;;;;;;;;;;;5066655;28;43058;-80
2023/12/24 08:10:25;;;;;;;;;;;;;;;;;;5068059;28;43134;-87
2023/12/24 08:12:51;;;;;;;;;;;;;;;;;;5063485;28;43544;-87
2023/12/24 08:15:21;;;;;;;;;;;;;;;;;;5071440;28;42941;-84
2023/12/24 08:17:47;;;;;;;;;;;;;;;;;;5067229;28;43024;-79
2023/12/24 08:20:13;;;;;;;;;;;;;;;;;;5066388;28;43047;-85
2023/12/24 08:22:39;;;;;;;;;;;;;;;;;;5046366;28;44017;-84
2023/12/24 08:25:05;;;;;;;;;;;;;;;;;;5066586;28;43317;-82
2023/12/24 08:27:31;;;;;;;;;;;;;;;;;;5064286;28;43770;-89
2023/12/24 08:29:57;;;;;;;;;;;;;;;;;;5062102;28;43060;-83
2023/12/24 08:32:23;;;;;;;;;;;;;;;;;;5069884;28;44058;-84
2023/12/24 08:34:48;;;;;;;;;;;;;;;;;;5061554;28;43000;-82
2023/12/24 08:37:14;;;;;;;;;;;15.00;61.50;;;;;;5065934;28;43009;-82
2023/12/24 08:39:40;;;;;;;;;;;;;;;;;;5067273;28;42937;-82
2023/12/24 08:42:06;;;;;;;;;;;15.60;61.20;;;;;;5066287;28;43920;-86
2023/12/24 08:44:31;;;;;;;;;;;15.40;61.30;;;;;;5066357;28;43027;-86
2023/12/24 08:46:57;;;;;;;;;;;;;;;;;;5067741;28;43037;-86
2023/12/24 08:49:23;;;;;;;;;;;;;;;;;;5067314;28;42830;-88
2023/12/24 08:51:49;;;;;;;;;;;;;;;;;;5067326;28;43420;-86
2023/12/24 08:54:15;;;;;;;;;;;;;;;;;;5067670;28;42886;-86
2023/12/24 08:56:41;;;;;;;;;;;;;;;;;;5066873;28;44094;-86
2023/12/24 08:59:06;;;;;;;;;;;;;;;;;;5067928;28;42919;-86
2023/12/24 09:01:33;;;;;;;;;;;;;;;;;;5067473;28;43770;-87
2023/12/24 09:03:59;;;;;;;;;;;;;;;;;;5068212;28;43196;-86
2023/12/24 09:06:25;;;;;;;;;;;;;;;;;;5067479;28;42949;-86
2023/12/24 09:08:50;;;;;;;;;;;;;;;;;;5068243;28;42971;-86
2023/12/24 09:11:16;;;;;;;;;;;16.20;62.10;;;;;;5067415;28;43604;-86
2023/12/24 09:13:41;;;;;;;;;;;16.20;62.30;;;;;;5067504;28;42785;-86
2023/12/24 09:16:07;;;;;;;;;;;16.30;60.90;;;;;;5067268;28;43488;-86
2023/12/24 09:18:33;;;;;;;;;;;;;;;;;;5067296;28;43128;-86
2023/12/24 09:20:59;;;;;;;;;;;;;;;;;;5067075;28;43488;-86
2023/12/24 09:23:25;;;;;;;;;;;;;;;;;;5067279;28;42883;-86
2023/12/24 09:25:51;;;;;;;;;;;;;;;;;;5067450;28;42957;-86
2023/12/24 09:28:17;;;;;;;;;;;;;;;;;;5066706;28;43076;-86
2023/12/24 09:30:43;;;;;;;;;;;;;;;;;;5066672;28;42975;-86
2023/12/24 09:33:08;;;;;;;;;;;;;;;;;;5067632;28;43056;-86
2023/12/24 09:35:35;;;;;;;;;;;;;;;;;;5066717;28;43058;-87
2023/12/24 09:38:01;;;;;;;;;;;;;;;;;;5066834;28;42928;-86
2023/12/24 09:40:27;;;;;;;;;;;;;;;;;;5066888;28;43766;-86
2023/12/24 09:42:53;;;;;;;;;;;;;;;;;;5067101;28;42848;-85
2023/12/24 09:45:19;;;;;;;;;;;16.40;62.80;;;;;;5067374;28;42800;-86
2023/12/24 09:47:45;;;;;;;;;;;;;;;;;;5067361;28;43242;-86
2023/12/24 09:50:12;;;;;;;;;;;;;;;;;;5067128;28;42897;-86
2023/12/24 09:52:37;;;;;;;;;;;16.60;62.90;;;;;;5066990;28;42972;-86
2023/12/24 09:55:03;;;;;;;;;;;16.70;61.30;;;;;;5066628;28;43088;-86
2023/12/24 09:57:29;;;;;;;;;;;;;;;;;;5066553;28;43009;-86
2023/12/24 09:59:55;;;;;;;;;;;;;;;;;;5066557;28;42902;-86
2023/12/24 10:02:21;;;;;;;;;;;;;;;;;;5066596;28;43160;-86
2023/12/24 10:04:47;;;;;;;;;;;;;;;;;;5066274;28;42920;-86
2023/12/24 10:07:13;;;;;;;;;;;;;;;;;;5066560;28;42918;-86
2023/12/24 10:09:38;;;;;;;;;;;;;;;;;;5066663;28;43565;-86
2023/12/24 10:12:05;;;;;;;;;;;16.70;63.40;;;;;;5066430;28;42915;-86
2023/12/24 10:14:31;;;;;;;;;;;;;;;;;;5066400;28;42982;-86
2023/12/24 10:16:59;;;;;;;;;;;;;;;;;;5066782;28;42866;-86
2023/12/24 10:19:25;;;;;;;;;;;;;;;;;;5066548;28;43596;-86
2023/12/24 10:21:51;;;;;;;;;;;;;;;;;;5067055;28;42829;-86
2023/12/24 10:24:17;;;;;;;;;;;;;;;;;;5082378;28;44700;-86
2023/12/24 10:26:43;;;;;;;;;;;;;;;;;;5066714;28;42910;-86
2023/12/24 10:29:09;;;;;;;;;;;;;;;;;;5091598;28;45296;-86
2023/12/24 10:31:36;;;;;;;;;;;16.70;62.50;;;;;;5084474;28;43068;-86
2023/12/24 10:34:02;;;;;;;;;;;16.70;63.50;;;;;;5065866;28;43757;-86
2023/12/24 10:36:27;;;;;;;;;;;16.70;63.20;;;;;;5066633;28;42949;-86
2023/12/24 10:38:53;;;;;;;;;;;;;;;;;;5066239;28;42988;-86
2023/12/24 10:41:19;;;;;;;;;;;;;;;;;;5066290;28;42850;-86
2023/12/24 10:43:45;;;;;;;;;;;;;;;;;;5066105;28;43456;-86
2023/12/24 10:46:11;;;;;;;;;;;;;;;;;;5066157;28;42772;-86
2023/12/24 10:48:37;;;;;;;;;;;;;;;;;;5066145;28;42885;-86
2023/12/24 10:51:03;;;;;;;;;;;;;;;;;;5065980;28;42935;-86
2023/12/24 10:53:29;;;;;;;;;;;;;;;;;;5066697;28;42767;-86
2023/12/24 10:56:02;;;;;;;;;;;16.80;63.70;;;;;;5065664;28;42969;-86
2023/12/24 10:58:36;;;;;;;;;;;16.70;63.50;;;;;;5066221;28;43414;-86
2023/12/24 11:01:02;;;;;;;;;;;;;;;;;;5065712;28;42940;-86
2023/12/24 11:03:28;;;;;;;;;;;;;;;;;;5062945;28;42942;-86
2023/12/24 11:05:54;;;;;;;;;;;16.70;63.60;;;;;;5040689;28;43499;-87
2023/12/24 11:08:22;;;;;;;;;;;16.80;63.50;;;;;;5043913;28;43671;-86
2023/12/24 11:10:48;;;;;;;;;;;;;;;;;;5043376;28;42966;-87
2023/12/24 11:13:14;;;;;;;;;;;;;;;;;;5045329;28;43472;-86
2023/12/24 11:15:44;;;;;;;;;;;16.70;63.80;;;;;;5045653;28;42877;-86
2023/12/24 11:18:10;;;;;;;;;;;;;;;;;;5045096;28;43468;-86
2023/12/24 11:20:40;;;;;;;;;;;16.90;64.10;;;;;;5043795;28;42895;-86
2023/12/24 11:23:06;;;;;;;;;;;16.80;64.20;;;;;;5026275;28;44922;-86
2023/12/24 11:25:32;;;;;;;;;;;;;;;;;;5045569;28;42898;-86
2023/12/24 11:27:58;;;;;;;;;;;;;;;;;;5058013;28;43688;-86
2023/12/24 11:30:23;;;;;;;;;;;16.90;64.00;;;;;;5062985;28;43023;-87
2023/12/24 11:32:49;;;;;;;;;;;;;;;;;;5060469;28;43604;-87
2023/12/24 11:35:15;;;;;;;;;;;;;;;;;;5041362;28;42977;-87
2023/12/24 11:37:43;;;;;;;;;;;;;;;;;;5032694;28;43137;-88
2023/12/24 11:40:09;;;;;;;;;;;;;;;;;;5036540;28;42966;-83
2023/12/24 11:42:35;;;;;;;;;;;;;;;;;;5042323;28;43026;-87
2023/12/24 11:45:01;;;;;;;;;;;;;;;;;;5042232;28;43025;-87
2023/12/24 11:47:27;;;;;;;;;;;;;;;;;;5040139;28;43912;-87
2023/12/24 11:49:53;;;;;;;;;;;;;;;;;;5044917;28;43081;-81
2023/12/24 11:52:19;;;;;;;;;;;;;;;;;;5063645;28;43102;-84
2023/12/24 11:54:45;;;;;;;;;;;;;;;;;;5062940;28;42988;-85
2023/12/24 11:57:11;;;;;;;;;;;;;;;;;;5062532;28;42889;-85
2023/12/24 11:59:37;;;;;;;;;;;;;;;;;;5064126;28;43159;-85
2023/12/24 12:02:03;;;;;;;;;;;;;;;;;;5063988;28;42854;-82
2023/12/24 12:04:29;;;;;;;;;;;;;;;;;;5051832;28;42921;-85
2023/12/24 12:06:55;;;;;;;;;;;;;;;;;;5042284;28;44320;-84
2023/12/24 12:09:21;;;;;;;;;;;;;;;;;;5043607;28;43031;-85
2023/12/24 12:11:48;;;;;;;;;;;;;;;;;;5042469;28;44818;-85
2023/12/24 12:14:15;;;;;;;;;;;;;;;;;;5043748;28;43000;-81
2023/12/24 12:16:40;;;;;;;;;;;16.90;63.70;;;;;;5042354;28;44482;-83
2023/12/24 12:19:06;;;;;;;;;;;17.20;63.80;;;;;;5044082;28;42961;-84
2023/12/24 12:21:31;;;;;;;;;;;;;;;;;;5040731;28;43198;-84
2023/12/24 12:23:57;;;;;;;;;;;17.10;62.10;;;;;;5036834;28;43127;-89
2023/12/24 12:26:23;;;;;;;;;;;;;;;;;;5041368;28;44419;-89
2023/12/24 12:28:49;;;;;;;;;;;;;;;;;;5044766;28;42957;-86
2023/12/24 12:31:15;;;;;;;;;;;;;;;;;;5040844;28;45586;-82
2023/12/24 12:33:41;;;;;;;;;;;;;;;;;;5043153;28;43102;-86
2023/12/24 12:36:07;;;;;;;;;;;;;;;;;;5061763;28;43020;-91
2023/12/24 12:38:33;;;;;;;;;;;;;;;;;;5066314;28;42958;-91
2023/12/24 12:40:58;;;;;;;;;;;17.30;68.10;;;;;;5066653;28;43029;-90
2023/12/24 12:43:24;;;;;;;;;;;;;;;;;;5066892;28;43059;-88
2023/12/24 12:45:49;;;;;;;;;;;17.20;69.90;;;;;;5066525;28;42987;-91
2023/12/24 12:48:15;;;;;;;;;;;;;;;;;;5071232;28;43395;-88
2023/12/24 12:50:41;;;;;;;;;;;;;;;;;;5067455;28;42866;-92
2023/12/24 12:53:07;;;;;;;;;;;;;;;;;;5067440;28;42992;-92
2023/12/24 12:55:33;;;;;;;;;;;;;;;;;;5067106;28;43311;-87
2023/12/24 12:57:59;;;;;;;;;;;;;;;;;;5067487;28;42916;-90
2023/12/24 13:00:25;;;;;;;;;;;;;;;;;;5068136;28;42871;-88
2023/12/24 13:02:51;;;;;;;;;;;;;;;;;;5082468;28;42798;-93
2023/12/24 13:05:17;;;;;;;;;;;;;;;;;;5067134;28;43652;-89
2023/12/24 13:07:43;;;;;;;;;;;;;;;;;;5066009;28;42765;-89
2023/12/24 13:10:09;;;;;;;;;;;;;;;;;;5065909;28;42879;-84
2023/12/24 13:12:35;;;;;;;;;;;;;;;;;;5067336;28;43056;-85
2023/12/24 13:15:02;;;;;;;;;;;;;;;;;;5074569;28;44871;-84
2023/12/24 13:17:28;;;;;;;;;;;;;;;;;;5045234;28;42944;-78
2023/12/24 13:19:54;;;;;;;;;;;;;;;;;;5068343;28;43994;-87
2023/12/24 13:22:21;;;;;;;;;;;17.30;69.90;;;;;;5040051;28;42979;-85
2023/12/24 13:24:48;;;;;;;;;;;;;;;;;;5042738;28;43635;-84
2023/12/24 13:27:17;;;;;;;;;;;17.40;69.90;;;;;;5041928;28;43166;-84
2023/12/24 13:29:43;;;;;;;;;;;;;;;;;;5045996;28;44945;-84
2023/12/24 13:32:09;;;;;;;;;;;;;;;;;;5050092;28;43371;-84
2023/12/24 13:34:35;;;;;;;;;;;;;;;;;;5044221;28;44797;-84
2023/12/24 13:37:01;;;;;;;;;;;;;;;;;;5059003;28;42859;-84
2023/12/24 13:39:28;;;;;;;;;;;;;;;;;;5047170;28;45153;-83
2023/12/24 13:41:54;;;;;;;;;;;17.30;73.10;;;;;;5046968;28;43077;-83
2023/12/24 13:44:19;;;;;;;;;;;17.30;72.90;;;;;;5064707;28;43045;-83
2023/12/24 13:46:45;;;;;;;;;;;;;;;;;;5063813;28;42928;-83
2023/12/24 13:49:11;;;;;;;;;;;;;;;;;;5045912;28;44824;-84
2023/12/24 13:51:37;;;;;;;;;;;;;;;;;;5065008;28;42960;-83
2023/12/24 13:54:03;;;;;;;;;;;;;;;;;;5064443;28;42938;-84
2023/12/24 13:56:33;;;;;;;;;;;;;;;;;;5063592;28;43015;-84
2023/12/24 13:58:58;;;;;;;;;;;17.30;72.30;;;;;;5065093;28;42942;-83
2023/12/24 14:01:24;;;;;;;;;;;17.40;73.20;;;;;;5061444;28;42902;-84
2023/12/24 14:03:50;;;;;;;;;;;;;;;;;;5063118;28;43011;-85
2023/12/24 14:06:16;;;;;;;;;;;;;;;;;;5065134;28;44674;-83
2023/12/24 14:08:41;;;;;;;;;;;17.40;72.60;;;;;;5064857;28;43008;-83
2023/12/24 14:11:10;;;;;;;;;;;;;;;;;;5063878;28;42980;-84
2023/12/24 14:13:35;;;;;;;;;;;17.30;73.20;;;;;;5064647;28;43118;-83
2023/12/24 14:16:02;;;;;;;;;;;;;;;;;;5063574;28;43024;-83
2023/12/24 14:18:28;;;;;;;;;;;17.30;72.40;;;;;;5062499;28;43142;-84
2023/12/24 14:20:54;;;;;;;;;;;;;;;;;;5058990;28;43136;-83
2023/12/24 14:23:20;;;;;;;;;;;;;;;;;;5047936;28;44476;-83
2023/12/24 14:25:45;;;;;;;;;;;17.20;72.90;;;;;;5062630;28;42877;-83
2023/12/24 14:28:11;;;;;;;;;;;;;;;;;;5069128;28;43586;-83
2023/12/24 14:30:37;;;;;;;;;;;;;;;;;;5066120;28;42937;-83
2023/12/24 14:33:03;;;;;;;;;;;;;;;;;;5068981;28;43801;-84
2023/12/24 14:35:29;;;;;;;;;;;;;;;;;;5063068;28;42954;-82
2023/12/24 14:37:55;;;;;;;;;;;;;;;;;;5067503;28;43560;-84
2023/12/24 14:40:21;;;;;;;;;;;;;;;;;;5063892;28;43153;-84
2023/12/24 14:42:47;;;;;;;;;;;;;;;;;;5062709;28;43356;-84
2023/12/24 14:45:13;;;;;;;;;;;;;;;;;;5061916;28;43166;-84
2023/12/24 14:47:39;;;;;;;;;;;;;;;;;;5065043;28;43037;-85
2023/12/24 14:50:05;;;;;;;;;;;;;;;;;;5042313;28;42839;-83
2023/12/24 14:52:31;;;;;;;;;;;;;;;;;;5061021;28;44038;-84
2023/12/24 14:54:57;;;;;;;;;;;;;;;;;;5062182;28;42995;-84
2023/12/24 14:57:25;;;;;;;;;;;;;;;;;;5065137;28;43048;-84
2023/12/24 14:59:51;;;;;;;;;;;;;;;;;;5063157;28;42973;-85
2023/12/24 15:02:17;;;;;;;;;;;;;;;;;;5065087;28;43496;-85
2023/12/24 15:04:44;;;;;;;;;;;;;;;;;;5047321;28;43034;-85
2023/12/24 15:07:10;;;;;;;;;;;17.20;71.10;;;;;;5069210;28;43230;-84
2023/12/24 15:09:36;;;;;;;;;;;;;;;;;;5073179;28;43262;-84
2023/12/24 15:12:02;;;;;;;;;;;;;;;;;;5064635;28;42921;-85
2023/12/24 15:14:28;;;;;;;;;;;17.20;72.60;;;;;;5065687;28;43006;-84
2023/12/24 15:16:54;;;;;;;;;;;;;;;;;;5047860;28;45013;-84
2023/12/24 15:19:19;;;;;;;;;;;17.10;72.30;;;;;;5067602;28;42981;-84
2023/12/24 15:21:45;;;;;;;;;;;;;;;;;;5063886;28;43066;-84
2023/12/24 15:24:12;;;;;;;;;;;;;;;;;;5066352;28;42978;-85
2023/12/24 15:26:38;;;;;;;;;;;;;;;;;;5057814;28;44371;-87
2023/12/24 15:29:04;;;;;;;;;;;;;;;;;;5064221;28;43037;-87
2023/12/24 15:31:30;;;;;;;;;;;17.10;71.90;;;;;;5063006;28;42930;-90
2023/12/24 15:33:55;;;;;;;;;;;17.20;70.60;;;;;;5063485;28;42997;-89
2023/12/24 15:36:21;;;;;;;;;;;;;;;;;;5063428;28;43609;-84
2023/12/24 15:38:47;;;;;;;;;;;;;;;;;;5043545;28;43271;-85
2023/12/24 15:41:13;;;;;;;;;;;;;;;;;;5044951;28;43446;-84
2023/12/24 15:43:44;;;;;;;;;;;;;;;;;;5063363;28;42937;-86
2023/12/24 15:46:10;;;;;;;;;;;17.10;70.10;;;;;;5062789;28;43532;-85
2023/12/24 15:48:36;;;;;;;;;;;17.30;70.60;;;;;;5065214;28;42889;-89
2023/12/24 15:51:03;;;;;;;;;;;;;;;;;;5062123;28;43802;-85